Latest Coastal Weather Observations for Newcastle Nobbys

IDN60701

Issued at 10:22 pm EDT Thursday 18 December 2014 (issued every 10 minutes, with the page automatically refreshed every 10 minutes)

About coastal observations | Map of coastal stations | Coastal observations for NSW | Marine services | Other Formats
Station Details ID: 061055 Name: NEWCASTLE NOBBYS SIGNAL STATION AWS Lat: -32.92 Lon: 151.80 Height: 33.0 m
Data from the previous 72 hours. | See also: Recent months at Newcastle Nobbys
Date/Time
EDT
Temp

°C
Wind Pressure Rain
since 9am
mm
Weather Cloud Vis
km
Sea
Height
m
Swell
Dir
 
Speed
knots
Gust
knots
hPa Trend Height
m
Period
s
Dir
18/10:00pm 21.6 E 5 7 - - 0.0 - - - - - - -
18/09:30pm 22.1 E 5 5 - - 0.0 - - - - - - -
18/09:00pm 22.1 SE 8 9 - - 0.0 - - - - - - -
18/08:30pm 23.1 SE 7 10 - - 0.0 - - - - - - -
18/08:00pm 24.6 N 7 9 - - 0.0 - - - - - - -
18/07:30pm 24.3 N 10 12 - - 0.0 - - - - - - -
18/07:00pm 24.1 NNE 9 13 - - 0.0 - - - - - - -
18/06:30pm 23.7 NNE 8 11 - - 0.0 - - - - - - -
18/06:00pm 23.4 NE 11 13 - - 0.0 - - - - - - -
18/05:30pm 23.2 ENE 10 14 - - 0.0 - - - - - - -
18/05:00pm 22.9 ENE 8 11 - - 0.0 - - - - - - -
18/04:30pm 22.9 ENE 9 11 - - 0.0 - - - - - - -
18/04:00pm 22.9 ENE 11 14 - - 0.0 - - - - - - -
18/03:30pm 23.0 E 9 11 - - 0.0 - - - - - - -
18/03:00pm 22.8 E 10 13 - - 0.0 - - - - - - -
18/02:30pm 23.0 E 12 14 - - 0.0 - - - - - - -
18/02:00pm 23.1 E 12 15 - - 0.0 - - - - - - -
18/01:30pm 23.1 ESE 10 13 - - 0.0 - - - - - - -
18/01:00pm 23.1 ESE 9 12 - - 0.0 - - - - - - -
18/12:30pm 22.7 ESE 8 11 - - 0.0 - - - - - - -
18/12:00pm 22.9 SE 8 9 - - 0.0 - - - - - - -
18/11:30am 22.8 SE 7 8 - - 0.0 - - - - - - -
18/11:00am 22.8 SE 6 6 - - 0.0 - - - - - - -
18/10:30am 22.7 SE 6 7 - - 0.0 - - - - - - -
18/10:00am 22.4 ESE 5 7 - - 0.0 - - - - - - -
18/09:30am 21.7 ESE 7 9 - - 0.0 - - - - - - -
18/09:00am 21.8 E 3 6 - - 0.8 - - - - - - -
18/08:30am 21.2 E 5 7 - - 0.8 - - - - - - -
18/08:00am 21.1 E 4 5 - - 0.8 - - - - - - -
18/07:30am 21.0 E 6 7 - - 0.8 - - - - - - -
18/07:00am 20.8 ENE 6 8 - - 0.8 - - - - - - -
18/06:30am 20.7 ENE 5 7 - - 0.8 - - - - - - -
18/06:00am 20.5 ENE 4 6 - - 0.8 - - - - - - -
18/05:30am 20.4 ENE 5 8 - - 0.8 - - - - - - -
18/05:00am 20.4 E 7 9 - - 0.8 - - - - - - -
18/04:30am 20.4 ESE 14 16 - - 0.8 - - - - - - -
18/04:00am 20.3 ESE 10 12 - - 0.8 - - - - - - -
18/03:30am 20.1 ESE 9 11 - - 0.8 - - - - - - -
18/03:00am 20.1 ESE 7 8 - - 0.8 Recent precip. - - - - - -
18/02:30am 20.1 ESE 5 6 - - 0.8 - - - - - - -
18/02:00am 20.5 ESE 3 8 - - 0.0 - - - - - - -
18/01:30am 20.6 ESE 5 6 - - 0.0 - - - - - - -
18/01:00am 20.6 ESE 8 10 - - 0.0 - - - - - - -
18/12:30am 20.5 ESE 5 8 - - 0.0 - - - - - - -
18/12:00am 20.5 ESE 5 6 - - 0.0 - - - - - - -
 
Date/Time
EDT
Temp

°C
Wind Pressure Rain
since 9am
mm
Weather Cloud Vis
km
Sea
Height
m
Swell
Dir
 
Speed
knots
Gust
knots
hPa Trend Height
m
Period
s
Dir
17/11:30pm 20.5 ESE 4 5 - - 0.0 - - - - - - -
17/11:00pm 20.7 ESE 9 11 - - 0.0 - - - - - - -
17/10:30pm 20.7 SSE 5 6 - - 0.0 - - - - - - -
17/10:00pm 20.7 SE 7 9 - - 0.0 - - - - - - -
17/09:30pm 20.8 SE 10 13 - - 0.0 - - - - - - -
17/09:00pm 20.4 SE 11 13 - - 0.0 - - - - - - -
17/08:30pm 20.4 SE 12 13 - - 0.0 - - - - - - -
17/08:00pm 20.5 SE 12 14 - - 0.0 - - - - - - -
17/07:30pm 20.5 SE 11 11 - - 0.0 - - - - - - -
17/07:00pm 20.4 SSE 10 13 - - 0.0 - - - - - - -
17/06:30pm 20.7 SSE 12 13 - - 0.0 - - - - - - -
17/06:00pm 20.6 SSE 13 14 - - 0.0 - - - - - - -
17/05:30pm 20.6 S 13 15 - - 0.0 - - - - - - -
17/05:00pm 20.6 S 14 15 - - 0.0 - - - - - - -
17/04:30pm 21.1 SSE 14 17 - - 0.0 - - - - - - -
17/04:00pm 20.9 SSE 16 18 - - 0.0 - - - - - - -
17/03:30pm 20.5 S 16 18 - - 0.0 - - - - - - -
17/03:00pm 21.2 S 16 18 - - 0.0 - - - - - - -
17/02:30pm 20.8 S 16 18 - - 0.0 - - - - - - -
17/02:00pm 21.1 S 16 19 - - 0.0 - - - - - - -
17/01:30pm 20.8 S 17 19 - - 0.0 - - - - - - -
17/01:00pm 20.8 S 18 21 - - 0.0 - - - - - - -
17/12:30pm 20.7 S 20 23 - - 0.0 - - - - - - -
17/12:00pm 20.7 S 21 25 - - 0.0 - - - - - - -
17/11:30am 20.6 S 21 25 - - 0.0 - - - - - - -
17/11:00am 20.6 S 21 25 - - 0.0 - - - - - - -
17/10:30am 20.8 S 22 25 - - 0.0 - - - - - - -
17/10:00am 20.5 S 24 28 - - 0.0 - - - - - - -
17/09:30am 20.6 S 23 28 - - 0.0 - - - - - - -
17/09:00am 20.8 S 22 27 - - 0.0 - - - - - - -
17/08:30am 20.7 SSW 21 27 - - 0.0 - - - - - - -
17/08:00am 20.6 SSW 19 27 - - 0.0 - - - - - - -
17/07:30am 20.8 SSW 20 29 - - 0.0 - - - - - - -
17/07:00am 21.3 SSW 18 24 - - 0.0 - - - - - - -
17/06:53am 21.5 SSW 19 30 - - 0.0 - - - - - - -
17/06:50am 21.6 SSW 20 30 - - 0.0 - - - - - - -
17/06:35am 26.6 WSW 12 24 - - 0.0 - - - - - - -
17/06:30am 26.3 W 10 13 - - 0.0 - - - - - - -
17/06:00am 23.6 NNW 7 8 - - 0.0 - - - - - - -
17/05:30am 23.8 WNW 9 12 - - 0.0 - - - - - - -
17/05:00am 23.3 NW 7 10 - - 0.0 - - - - - - -
17/04:30am 23.0 NNW 8 10 - - 0.0 - - - - - - -
17/04:00am 22.8 NNW 8 9 - - 0.0 - - - - - - -
17/03:30am 21.6 NNW 6 8 - - 0.0 - - - - - - -
17/03:00am 22.0 NNW 7 9 - - 0.0 - - - - - - -
17/02:30am 23.5 NNW 10 11 - - 0.0 - - - - - - -
17/02:00am 23.3 NW 9 11 - - 0.0 - - - - - - -
17/01:30am 23.1 NNW 7 9 - - 0.0 - - - - - - -
17/01:00am 23.4 NW 8 9 - - 0.0 - - - - - - -
17/12:30am 22.9 NNW 8 10 - - 0.0 - - - - - - -
17/12:00am 22.8 NNW 7 9 - - 0.0 - - - - - - -
 
Date/Time
EDT
Temp

°C
Wind Pressure Rain
since 9am
mm
Weather Cloud Vis
km
Sea
Height
m
Swell
Dir
 
Speed
knots
Gust
knots
hPa Trend Height
m
Period
s
Dir
16/11:30pm 23.0 N 10 11 - - 0.0 - - - - - - -
16/11:00pm 23.5 NNW 7 8 - - 0.0 - - - - - - -
16/10:30pm 24.1 NNE 3 4 - - 0.0 - - - - - - -
16/10:00pm 24.4 NNW 10 14 - - 0.0 - - - - - - -
16/09:30pm 24.9 NNW 11 13 - - 0.0 - - - - - - -
16/09:00pm 25.3 N 13 17 - - 0.0 - - - - - - -
16/08:30pm 25.6 N 14 17 - - 0.0 - - - - - - -
16/08:00pm 26.1 N 14 16 - - 0.0 - - - - - - -
16/07:30pm 25.6 N 16 19 - - 0.0 - - - - - - -
16/07:00pm 24.9 NNE 15 17 - - 0.0 - - - - - - -
16/06:30pm 24.7 NNE 12 15 - - 0.0 - - - - - - -
16/06:00pm 24.1 NE 8 11 - - 0.0 - - - - - - -
16/05:30pm 24.0 NE 14 18 - - 0.0 - - - - - - -
16/05:00pm 23.8 ENE 12 16 - - 0.0 - - - - - - -
16/04:30pm 23.6 NE 14 17 - - 0.0 - - - - - - -
16/04:00pm 24.1 NE 15 20 - - 0.0 - - - - - - -
16/03:30pm 23.8 ENE 10 14 - - 0.0 - - - - - - -
16/03:00pm 24.1 NE 14 18 - - 0.0 - - - - - - -
16/02:30pm 22.7 ENE 13 18 - - 0.0 - - - - - - -
16/02:00pm 22.2 ENE 14 19 - - 0.0 - - - - - - -
16/01:30pm 22.3 ENE 15 18 - - 0.0 - - - - - - -
16/01:00pm 23.1 ENE 13 17 - - 0.0 - - - - - - -
16/12:30pm 22.4 ENE 12 14 - - 0.0 - - - - - - -
16/12:00pm 22.3 ENE 13 16 - - 0.0 - - - - - - -
16/11:30am 22.4 E 13 16 - - 0.0 - - - - - - -
16/11:00am 23.1 E 7 9 - - 0.0 - - - - - - -
16/10:30am 22.7 NE 8 11 - - 0.0 - - - - - - -
16/10:00am 22.7 WNW 9 12 - - 0.0 - - - - - - -
16/09:30am 23.0 N 4 6 - - 0.0 - - - - - - -
16/09:00am 22.2 N 9 12 - - 0.0 - - - - - - -
16/08:30am 21.3 NE 4 6 - - 0.0 - - - - - - -
16/08:00am 19.9 N 6 7 - - 0.0 - - - - - - -
16/07:30am 19.3 N 6 8 - - 0.0 - - - - - - -
16/07:00am 19.0 N 6 8 - - 0.0 - - - - - - -
16/06:30am 18.8 N 6 8 - - 0.0 - - - - - - -
16/06:00am 18.6 NNE 6 8 - - 0.0 - - - - - - -
16/05:30am 18.9 NNE 7 9 - - 0.0 - - - - - - -
16/05:00am 18.6 NE 3 5 - - 0.0 - - - - - - -
16/04:30am 18.4 N 4 5 - - 0.0 - - - - - - -
16/04:00am 19.2 NNE 9 12 - - 0.0 - - - - - - -
16/03:30am 19.4 NE 8 10 - - 0.0 - - - - - - -
16/03:00am 19.3 NE 7 10 - - 0.0 - - - - - - -
16/02:30am 19.5 NE 6 9 - - 0.0 - - - - - - -
16/02:00am 19.8 NE 7 10 - - 0.0 - - - - - - -
16/01:30am 19.7 NE 9 11 - - 0.0 - - - - - - -
16/01:00am 20.0 NE 6 9 - - 0.0 - - - - - - -
16/12:30am 20.0 NE 7 10 - - 0.0 - - - - - - -
16/12:00am 20.1 NE 10 13 - - 0.0 - - - - - - -
 
Date/Time
EDT
Temp

°C
Wind Pressure Rain
since 9am
mm
Weather Cloud Vis
km
Sea
Height
m
Swell
Dir
 
Speed
knots
Gust
knots
hPa Trend Height
m
Period
s
Dir
15/11:30pm 20.3 NE 10 13 - - 0.0 - - - - - - -
15/11:00pm 20.4 NE 9 11 - - 0.0 - - - - - - -
15/10:30pm 20.8 NE 8 11 - - 0.0 - - - - - - -

Other Formats:

Comma delimited format used in spreadsheet applications
http://www.bom.gov.au/fwo/IDN60701/IDN60701.94774.axf

JavaScript Object Notation format (JSON) in row-major order
http://www.bom.gov.au/fwo/IDN60701/IDN60701.94774.json